Time;durP1;ratioP1;P1;durP2;ratioP2;P2;SDS_P1;SDS_P2;PMS_P1;PMS_P2;Temp;Humidity;BMP_temperature;BMP_pressure;BME280_temperature;BME280_humidity;BME280_pressure;Samples;Min_cycle;Max_cycle;Signal;HPM_P1;HPM_P2
2022/09/05 00:01:55;;;;;;;;;;;;;;;13.78;51.48;101782.54;1720973;81;84001;-63
2022/09/05 00:04:27;;;;;;;;;;;;;;;13.73;51.53;101775.98;1721464;81;25730;-62
2022/09/05 00:07:11;;;;;;;;;;;;;;;13.68;51.54;101771.23;1721282;81;84603;-62
2022/09/05 00:09:43;;;;;;;;;;;;;;;13.65;51.67;101777.62;1722920;81;25794;-62
2022/09/05 00:12:12;;;;;;;;;;;;;;;13.63;51.77;101766.48;1718984;81;25747;-62
2022/09/05 00:14:49;;;;;;;;;;;;;;;13.60;51.77;101774.69;1722986;81;84237;-62
2022/09/05 00:17:35;;;;;;;;;;;;;;;13.58;51.82;101773.87;1720169;81;25790;-62
2022/09/05 00:20:22;;;;;;;;;;;;;;;13.56;51.91;101777.09;1725331;81;84444;-62
2022/09/05 00:23:04;;;;;;;;;;;;;;;13.53;51.91;101773.16;1716487;81;25801;-63
2022/09/05 00:25:35;;;;;;;;;;;;;;;13.51;52.01;101781.30;1724417;81;85398;-63
2022/09/05 00:28:10;;;;;;;;;;;;;;;13.48;51.93;101774.68;1714207;81;29715;-62
2022/09/05 00:30:42;;;;;;;;;;;;;;;13.47;52.04;101774.73;1718626;81;84614;-62
2022/09/05 00:33:32;;;;;;;;;;;;;;;13.44;52.03;101780.23;1723963;81;25826;-62
2022/09/05 00:36:04;;;;;;;;;;;;;;;13.41;52.17;101776.31;1722696;81;25761;-62
2022/09/05 00:38:31;;;;;;;;;;;;;;;13.37;52.16;101774.20;1712985;81;84122;-62
2022/09/05 00:41:01;;;;;;;;;;;;;;;13.35;52.18;101775.19;1718276;81;29542;-62
2022/09/05 00:43:36;;;;;;;;;;;;;;;13.32;52.29;101778.87;1694821;81;84220;-62
2022/09/05 00:46:15;;;;;;;;;;;;;;;13.28;52.43;101775.41;1723383;81;25835;-62
2022/09/05 00:48:54;;;;;;;;;;;;;;;13.25;52.47;101780.91;1721691;81;84575;-62
2022/09/05 00:51:45;;;;;;;;;;;;;;;13.22;52.51;101782.37;1719985;81;25774;-62
2022/09/05 00:54:29;;;;;;;;;;;;;;;13.20;52.50;101786.93;1718628;81;27479;-62
2022/09/05 00:56:59;;;;;;;;;;;;;;;13.18;52.45;101783.88;1711933;81;83996;-62
2022/09/05 00:59:52;;;;;;;;;;;;;;;13.11;52.58;101781.84;1715755;81;25692;-62
2022/09/05 01:02:46;;;;;;;;;;;;;;;13.10;52.80;101785.94;1718319;81;84356;-62
2022/09/05 01:05:32;;;;;;;;;;;;;;;13.08;52.82;101785.98;1724392;81;26224;-62
2022/09/05 01:08:23;;;;;;;;;;;;;;;13.07;52.87;101779.31;1719895;81;84174;-62
2022/09/05 01:10:59;;;;;;;;;;;;;;;13.04;52.88;101783.46;1722614;81;25841;-62
2022/09/05 01:13:45;;;;;;;;;;;;;;;13.02;53.04;101782.17;1719306;81;84494;-63
2022/09/05 01:16:14;;;;;;;;;;;;;;;13.02;52.96;101786.20;1720788;81;27852;-62
2022/09/05 01:18:58;;;;;;;;;;;;;;;13.01;52.93;101788.48;1723652;81;84409;-63
2022/09/05 01:21:40;;;;;;;;;;;;;;;12.99;53.13;101783.19;1721099;81;27457;-62
2022/09/05 01:24:24;;;;;;;;;;;;;;;12.97;53.17;101786.40;1720887;81;25740;-62
2022/09/05 01:27:20;;;;;;;;;;;;;;;12.94;53.14;101782.94;1647593;83;84242;-62
2022/09/05 01:29:49;;;;;;;;;;;;;;;12.90;53.28;101786.67;1723525;81;25888;-62
2022/09/05 01:32:38;;;;;;;;;;;;;;;12.87;53.23;101786.77;1717345;81;84048;-62
2022/09/05 01:35:33;;;;;;;;;;;;;;;12.82;53.32;101790.09;1721201;81;27758;-61
2022/09/05 01:38:27;;;;;;;;;;;;;;;12.80;53.32;101793.30;1716822;81;84188;-63
2022/09/05 01:41:21;;;;;;;;;;;;;;;12.76;53.42;101791.64;1720444;81;25839;-63
2022/09/05 01:44:00;;;;;;;;;;;;;;;12.72;53.47;101789.52;1717444;81;84156;-62
2022/09/05 01:46:52;;;;;;;;;;;;;;;12.68;53.48;101792.78;1717804;81;25778;-62
2022/09/05 01:49:38;;;;;;;;;;;;;;;12.66;53.62;101791.95;1719684;81;84340;-62
2022/09/05 01:52:25;;;;;;;;;;;;;;;12.64;53.61;101796.51;1717031;81;25850;-62
2022/09/05 01:55:10;;;;;;;;;;;;;;;12.62;53.70;101798.38;1722310;81;84268;-62
2022/09/05 01:58:00;;;;;;;;;;;;;;;12.60;53.75;101796.66;1720264;81;25856;-62
2022/09/05 02:00:41;;;;;;;;;;;;;;;12.56;53.64;101800.39;1716047;81;25742;-63
2022/09/05 02:03:35;;;;;;;;;;;;;;;12.51;53.81;101800.53;1718325;81;83961;-62
2022/09/05 02:06:10;;;;;;;;;;;;;;;12.49;53.78;101794.80;1715759;81;25736;-61
2022/09/05 02:08:46;;;;;;;;;;;;;;;12.46;53.86;101796.23;1723911;81;84173;-62
2022/09/05 02:11:12;;;;;;;;;;;;;;;12.43;53.89;101799.91;1716750;81;27821;-62
2022/09/05 02:13:59;;;;;;;;;;;;;;;12.42;53.82;101795.92;1720674;81;84146;-62
2022/09/05 02:16:32;;;;;;;;;;;;;;;12.38;53.95;101799.64;1716340;81;27496;-62
2022/09/05 02:19:16;;;;;;;;;;;;;;;12.36;54.00;101805.06;1716877;81;85056;-62
2022/09/05 02:21:54;;;;;;;;;;;;;;;12.33;54.05;101806.51;1713577;81;26223;-62
2022/09/05 02:24:35;;;;;;;;;;;;;;;12.32;54.16;101808.32;1719059;81;26457;-61
2022/09/05 02:27:24;;;;;;;;;;;;;;;12.30;54.12;101810.64;1703518;82;84174;-61
2022/09/05 02:30:12;;;;;;;;;;;;;;;12.28;54.09;101812.03;1704503;82;27376;-62
2022/09/05 02:33:12;;;;;;;;;;;;;;;12.26;54.04;101814.36;1704770;82;84095;-62
2022/09/05 02:35:44;;;;;;;;;;;;;;;12.24;54.22;101817.55;1697187;82;25915;-62
2022/09/05 02:38:31;;;;;;;;;;;;;;;12.22;54.29;101817.61;1693304;82;84413;-62
2022/09/05 02:41:06;;;;;;;;;;;;;;;12.21;54.31;101817.19;1697333;82;25790;-63
2022/09/05 02:43:53;;;;;;;;;;;;;;;12.20;54.39;101819.92;1677009;82;84270;-63
2022/09/05 02:46:28;;;;;;;;;;;;;;;12.18;54.44;101817.75;1703202;82;26493;-62
2022/09/05 02:49:06;;;;;;;;;;;;;;;12.16;54.52;101820.48;1699045;83;84066;-63
2022/09/05 02:51:50;;;;;;;;;;;;;;;12.15;54.43;101816.03;1680507;83;25896;-62
2022/09/05 02:54:23;;;;;;;;;;;;;;;12.12;54.50;101806.72;1708956;82;25877;-62
2022/09/05 02:57:19;;;;;;;;;;;;;;;12.10;54.62;101812.61;1704907;82;84500;-62
2022/09/05 03:00:13;;;;;;;;;;;;;;;12.09;54.66;101818.03;1689588;83;26228;-62
2022/09/05 03:03:03;;;;;;;;;;;;;;;12.09;54.76;101816.69;1703797;82;84457;-63
2022/09/05 03:05:35;;;;;;;;;;;;;;;12.07;54.67;101816.73;1704223;82;25799;-63
2022/09/05 03:08:25;;;;;;;;;;;;;;;12.07;54.76;101813.17;1699917;82;84139;-61
2022/09/05 03:11:15;;;;;;;;;;;;;;;12.05;54.70;101806.96;1698044;82;27470;-62
2022/09/05 03:14:04;;;;;;;;;;;;;;;12.02;54.85;101811.50;1702885;83;84322;-63
2022/09/05 03:16:51;;;;;;;;;;;;;;;12.00;54.92;101817.85;1709507;82;25696;-62
2022/09/05 03:19:42;;;;;;;;;;;;;;;11.97;54.97;101820.63;1708692;82;84197;-63
2022/09/05 03:22:26;;;;;;;;;;;;;;;11.94;54.97;101820.27;1711920;82;25774;-61
2022/09/05 03:25:18;;;;;;;;;;;;;;;11.91;55.05;101820.35;1711659;82;85482;-64
2022/09/05 03:28:09;;;;;;;;;;;;;;;11.92;55.08;101820.77;1711626;83;26376;-61
2022/09/05 03:30:53;;;;;;;;;;;;;;;11.92;55.11;101820.77;1706486;82;25809;-62
2022/09/05 03:33:31;;;;;;;;;;;;;;;11.89;55.13;101824.89;1711589;82;83919;-62
2022/09/05 03:36:18;;;;;;;;;;;;;;;11.88;55.25;101826.28;1703051;82;25826;-62
2022/09/05 03:39:01;;;;;;;;;;;;;;;11.86;55.28;101829.02;1708144;82;84101;-63
2022/09/05 03:41:39;;;;;;;;;;;;;;;11.84;55.28;101824.16;1712163;82;25766;-63
2022/09/05 03:44:14;;;;;;;;;;;;;;;11.83;55.30;101818.82;1707338;82;84299;-62
2022/09/05 03:47:02;;;;;;;;;;;;;;;11.82;55.34;101823.78;1707461;82;25759;-62
2022/09/05 03:49:47;;;;;;;;;;;;;;;11.82;55.36;101827.34;1598671;82;84269;-62
2022/09/05 03:52:25;;;;;;;;;;;;;;;11.80;55.43;101826.51;1709349;82;27376;-62
2022/09/05 03:54:58;;;;;;;;;;;;;;;11.77;55.43;101831.97;1711152;82;25747;-62
2022/09/05 03:57:39;;;;;;;;;;;;;;;11.73;55.46;101826.70;1710071;82;84065;-61
2022/09/05 04:00:11;;;;;;;;;;;;;;;11.71;55.51;101833.00;1707115;83;25813;-62
2022/09/05 04:02:52;;;;;;;;;;;;;;;11.71;55.48;101828.09;1712677;82;84036;-62
2022/09/05 04:05:21;;;;;;;;;;;;;;;11.70;55.56;101831.70;1702531;82;27477;-62
2022/09/05 04:07:53;;;;;;;;;;;;;;;11.70;55.53;101827.67;1704925;82;84211;-61
2022/09/05 04:10:28;;;;;;;;;;;;;;;11.69;55.61;101833.97;1710640;82;25797;-62
2022/09/05 04:13:10;;;;;;;;;;;;;;;11.68;55.62;101835.77;1711553;83;25796;-62
2022/09/05 04:15:42;;;;;;;;;;;;;;;11.68;55.58;101837.12;1701517;82;83870;-63
2022/09/05 04:18:21;;;;;;;;;;;;;;;11.69;55.69;101838.00;1707150;83;28211;-62
2022/09/05 04:20:57;;;;;;;;;;;;;;;11.68;55.72;101851.89;1710714;82;84441;-62
2022/09/05 04:23:46;;;;;;;;;;;;;;;11.67;55.73;101850.59;1711156;82;26445;-62
2022/09/05 04:26:36;;;;;;;;;;;;;;;11.67;55.75;101850.59;1707121;82;84099;-62
2022/09/05 04:29:27;;;;;;;;;;;;;;;11.67;55.72;101857.30;1725912;81;25757;-62
2022/09/05 04:32:02;;;;;;;;;;;;;;;11.67;55.79;101853.27;1724482;83;84545;-62
2022/09/05 04:34:44;;;;;;;;;;;;;;;11.66;55.66;101855.08;1704992;81;26018;-62
2022/09/05 04:37:10;;;;;;;;;;;;;;;11.65;55.73;101853.78;1725674;81;25836;-62
2022/09/05 04:39:36;;;;;;;;;;;;;;;11.65;55.82;101852.44;1699027;83;84823;-62
2022/09/05 04:42:09;;;;;;;;;;;;;;;11.64;55.82;101852.02;1722438;81;25707;-62
2022/09/05 04:44:57;;;;;;;;;;;;;;;11.66;55.80;101856.88;1723610;81;84202;-62
2022/09/05 04:47:39;;;;;;;;;;;;;;;11.67;55.89;101862.21;1725646;81;25813;-62
2022/09/05 04:50:08;;;;;;;;;;;;;;;11.68;55.90;101859.06;1722846;81;84413;-63
2022/09/05 04:52:54;;;;;;;;;;;;;;;11.68;55.87;101864.44;1725087;81;25795;-62
2022/09/05 04:55:26;;;;;;;;;;;;;;;11.66;55.93;101866.28;1730188;81;84638;-63
2022/09/05 04:58:05;;;;;;;;;;;;;;;11.66;56.01;101864.94;1728000;81;29589;-62
2022/09/05 05:00:52;;;;;;;;;;;;;;;11.67;56.03;101864.02;1719671;81;25751;-62
2022/09/05 05:03:28;;;;;;;;;;;;;;;11.68;56.10;101864.44;1721229;81;84155;-63
2022/09/05 05:06:00;;;;;;;;;;;;;;;11.70;56.17;101868.84;1723760;81;25772;-62
2022/09/05 05:08:44;;;;;;;;;;;;;;;11.69;56.09;101868.88;1719495;81;84195;-62
2022/09/05 05:11:43;;;;;;;;;;;;;;;11.69;56.25;101875.13;1717981;81;27432;-62
2022/09/05 05:14:18;;;;;;;;;;;;;;;11.71;56.28;101868.38;1720268;81;84120;-63
2022/09/05 05:16:54;;;;;;;;;;;;;;;11.75;56.30;101876.77;1721988;81;25741;-63
2022/09/05 05:19:28;;;;;;;;;;;;;;;11.76;56.36;101878.99;1726318;81;84522;-63
2022/09/05 05:21:59;;;;;;;;;;;;;;;11.77;56.44;101879.41;1718521;81;26308;-62
2022/09/05 05:24:31;;;;;;;;;;;;;;;11.79;56.45;101882.50;1725588;81;29522;-63
2022/09/05 05:27:16;;;;;;;;;;;;;;;11.83;56.49;101887.33;1731791;81;84069;-63
2022/09/05 05:29:51;;;;;;;;;;;;;;;11.85;56.39;101886.36;1726448;81;25788;-62
2022/09/05 05:32:29;;;;;;;;;;;;;;;11.88;56.49;101885.39;1733804;81;83949;-62
2022/09/05 05:35:01;;;;;;;;;;;;;;;11.90;56.45;101891.13;1729016;81;25815;-64
2022/09/05 05:37:33;;;;;;;;;;;;;;;11.91;56.51;101895.58;1721078;81;84346;-62
2022/09/05 05:40:09;;;;;;;;;;;;;;;11.96;56.61;101887.39;1729482;81;25773;-62
2022/09/05 05:42:37;;;;;;;;;;;;;;;11.99;56.54;101893.55;1729074;81;26526;-62
2022/09/05 05:45:05;;;;;;;;;;;;;;;12.03;56.62;101890.31;1728467;81;84468;-62
2022/09/05 05:47:34;;;;;;;;;;;;;;;12.08;56.62;101890.18;1731073;81;25708;-62
2022/09/05 05:50:06;;;;;;;;;;;;;;;12.12;56.63;101891.38;1726111;81;85182;-62
2022/09/05 05:53:09;;;;;;;;;;;;;;;12.19;56.57;101890.73;1717344;81;25894;-63
2022/09/05 05:55:54;;;;;;;;;;;;;;;12.25;56.65;101892.78;1729573;81;84694;-63
2022/09/05 05:58:47;;;;;;;;;;;;;;;12.36;56.66;101891.11;1723190;81;27855;-62
2022/09/05 06:01:37;;;;;;;;;;;;;;;12.47;56.63;101898.84;1727888;81;25822;-62
2022/09/05 06:04:26;;;;;;;;;;;;;;;12.57;56.61;101896.28;1726259;81;27295;-62
2022/09/05 06:07:01;;;;;;;;;;;;;;;12.68;56.57;101896.35;1726768;81;25730;-62
2022/09/05 06:09:48;;;;;;;;;;;;;;;12.79;56.49;101895.13;1728421;81;84419;-62
2022/09/05 06:12:50;;;;;;;;;;;;;;;12.86;56.45;101897.56;1729096;81;27580;-62
2022/09/05 06:15:40;;;;;;;;;;;;;;;12.97;56.41;101897.21;1728828;81;84099;-63
2022/09/05 06:18:30;;;;;;;;;;;;;;;13.10;56.36;101892.27;1731182;81;27391;-63
2022/09/05 06:21:14;;;;;;;;;;;;;;;13.20;56.30;101894.63;1731948;81;84286;-62
2022/09/05 06:23:44;;;;;;;;;;;;;;;13.30;56.20;101900.57;1667866;84;25951;-62
2022/09/05 06:26:25;;;;;;;;;;;;;;;13.38;56.17;101896.27;1688824;84;84360;-63
2022/09/05 06:29:16;;;;;;;;;;;;;;;13.49;56.10;101892.26;1683960;83;25778;-63
2022/09/05 06:31:48;;;;;;;;;;;;;;;13.58;55.98;101889.70;1677585;83;27459;-62
2022/09/05 06:34:34;;;;;;;;;;;;;;;13.67;55.86;101888.03;1663046;84;84207;-62
2022/09/05 06:37:27;;;;;;;;;;;;;;;13.79;55.83;101892.09;1671502;83;25812;-62
2022/09/05 06:40:11;;;;;;;;;;;;;;;13.89;55.70;101894.38;1689938;83;84535;-62
2022/09/05 06:43:00;;;;;;;;;;;;;;;13.97;55.61;101889.59;1672339;84;25769;-63
2022/09/05 06:45:51;;;;;;;;;;;;;;;14.09;55.51;101887.36;1672558;84;84478;-63
2022/09/05 06:48:20;;;;;;;;;;;;;;;14.20;55.36;101887.83;1670468;85;26217;-63
2022/09/05 06:50:53;;;;;;;;;;;;;;;14.29;55.27;101883.43;1675931;83;84313;-63
2022/09/05 06:53:34;;;;;;;;;;;;;;;14.39;55.14;101888.88;1692963;83;27852;-63
2022/09/05 06:56:10;;;;;;;;;;;;;;;14.50;55.04;101888.48;1668261;84;84310;-63
2022/09/05 06:58:42;;;;;;;;;;;;;;;14.64;54.86;101883.88;1677195;84;27459;-63
2022/09/05 07:01:09;;;;;;;;;;;;;;;14.76;54.64;101891.01;1674453;84;25836;-63
2022/09/05 07:03:45;;;;;;;;;;;;;;;14.85;54.52;101887.05;1671734;84;84960;-62
2022/09/05 07:06:17;;;;;;;;;;;;;;;14.96;54.39;101886.61;1682932;83;25794;-62
2022/09/05 07:08:52;;;;;;;;;;;;;;;15.05;54.24;101889.80;1681585;83;83975;-62
2022/09/05 07:11:22;;;;;;;;;;;;;;;15.14;54.00;101885.83;1679395;83;27339;-62
2022/09/05 07:13:54;;;;;;;;;;;;;;;15.21;53.94;101889.56;1679871;83;25843;-62
2022/09/05 07:16:41;;;;;;;;;;;;;;;15.32;53.83;101894.97;1682964;83;84030;-62
2022/09/05 07:19:27;;;;;;;;;;;;;;;15.41;53.66;101886.47;1682870;83;26925;-64
2022/09/05 07:22:21;;;;;;;;;;;;;;;15.53;53.48;101891.34;1682600;83;84118;-61
2022/09/05 07:24:49;;;;;;;;;;;;;;;15.62;53.30;101895.45;1685424;83;28208;-61
2022/09/05 07:27:36;;;;;;;;;;;;;;;15.72;53.13;101900.38;1690898;83;84374;-61
2022/09/05 07:30:04;;;;;;;;;;;;;;;15.80;53.15;101900.04;1694331;83;25745;-62
2022/09/05 07:32:33;;;;;;;;;;;;;;;15.91;52.82;101902.66;1691767;83;84360;-65
2022/09/05 07:35:04;;;;;;;;;;;;;;;16.02;52.57;101904.00;1693951;82;25730;-64
2022/09/05 07:37:35;;;;;;;;;;;;;;;16.09;52.51;101905.47;1692763;82;27543;-66
2022/09/05 07:40:09;;;;;;;;;;;;;;;16.16;52.24;101901.53;1697237;83;84555;-65
2022/09/05 07:42:44;;;;;;;;;;;;;;;16.22;52.06;101907.53;1701371;82;25871;-64
2022/09/05 07:45:12;;;;;;;;;;;;;;;16.31;51.96;101908.93;1694294;83;84275;-64
2022/09/05 07:47:58;;;;;;;;;;;;;;;16.39;51.89;101905.86;1692673;83;26489;-64
2022/09/05 07:50:24;;;;;;;;;;;;;;;16.49;51.66;101916.17;1691570;83;85046;-66
2022/09/05 07:52:50;;;;;;;;;;;;;;;16.58;51.54;101911.27;1698548;82;25765;-65
2022/09/05 07:55:28;;;;;;;;;;;;;;;16.66;51.43;101914.52;1694795;83;25674;-65
2022/09/05 07:57:58;;;;;;;;;;;;;;;16.73;51.31;101914.63;1694638;83;84445;-65
2022/09/05 08:00:26;;;;;;;;;;;;;;;16.84;51.22;101920.39;1695310;83;25410;-66
2022/09/05 08:02:52;;;;;;;;;;;;;;;16.94;51.07;101919.47;1697322;83;84047;-62
2022/09/05 08:05:20;;;;;;;;;;;;;;;17.02;50.85;101925.37;1693749;83;27181;-63
2022/09/05 08:07:52;;;;;;;;;;;;;;;17.09;50.75;101933.12;1691454;83;25750;-64
2022/09/05 08:10:26;;;;;;;;;;;;;;;17.18;50.67;101920.47;1690379;83;83956;-64
2022/09/05 08:13:03;;;;;;;;;;;;;;;17.30;50.50;101926.22;1685434;83;25769;-64
2022/09/05 08:15:29;;;;;;;;;;;;;;;17.37;50.53;101916.34;1692874;82;84435;-63
2022/09/05 08:18:08;;;;;;;;;;;;;;;17.47;50.36;101916.27;1695755;83;27203;-64
2022/09/05 08:20:55;;;;;;;;;;;;;;;17.56;50.13;101913.55;1694161;82;84318;-63
2022/09/05 08:23:44;;;;;;;;;;;;;;;17.65;50.10;101903.58;1693913;82;26324;-63
2022/09/05 08:26:33;;;;;;;;;;;;;;;17.75;49.84;101902.65;1688588;82;84632;-64
2022/09/05 08:29:25;;;;;;;;;;;;;;;17.83;49.54;101903.12;1696076;82;28257;-63
2022/09/05 08:31:55;;;;;;;;;;;;;;;17.89;49.43;101904.63;1695163;82;26867;-63
2022/09/05 08:34:34;;;;;;;;;;;;;;;17.96;49.29;101899.27;1694678;82;85006;-64
2022/09/05 08:37:01;;;;;;;;;;;;;;;18.04;49.19;101897.89;1693127;82;27824;-65
2022/09/05 08:39:30;;;;;;;;;;;;;;;18.10;48.89;101896.20;1692616;82;84209;-65
2022/09/05 08:42:29;;;;;;;;;;;;;;;18.17;48.70;101895.38;1694519;82;29809;-64
2022/09/05 08:45:02;;;;;;;;;;;;;;;18.23;48.62;101896.36;1692046;82;84099;-62
2022/09/05 08:47:49;;;;;;;;;;;;;;;18.30;48.43;101893.70;1695185;82;26253;-62
2022/09/05 08:50:24;;;;;;;;;;;;;;;18.36;48.32;101889.29;1690951;82;84614;-63
2022/09/05 08:53:05;;;;;;;;;;;;;;;18.44;48.22;101882.95;1696110;82;25792;-64
2022/09/05 08:55:50;;;;;;;;;;;;;;;18.53;48.21;101879.31;1692150;82;27492;-63
2022/09/05 08:58:28;;;;;;;;;;;;;;;18.61;47.97;101872.52;1693962;82;83886;-66
2022/09/05 09:01:16;;;;;;;;;;;;;;;18.70;47.81;101863.84;1693432;82;25911;-66
2022/09/05 09:04:11;;;;;;;;;;;;;;;18.76;47.63;101862.12;1692360;82;84310;-67
2022/09/05 09:06:50;;;;;;;;;;;;;;;18.83;47.54;101867.20;1695186;82;25922;-66
2022/09/05 09:09:35;;;;;;;;;;;;;;;18.93;47.24;101867.05;1694319;82;84789;-65
2022/09/05 09:12:21;;;;;;;;;;;;;;;18.99;47.22;101866.69;1694616;82;25776;-65
2022/09/05 09:14:57;;;;;;;;;;;;;;;19.06;47.10;101868.95;1695742;82;85127;-67
2022/09/05 09:17:32;;;;;;;;;;;;;;;19.15;46.98;101866.17;1699309;82;25790;-67
2022/09/05 09:20:05;;;;;;;;;;;;;;;19.23;46.94;101863.00;1663585;84;25711;-67
2022/09/05 09:22:41;;;;;;;;;;;;;;;19.31;46.74;101864.28;1670097;83;84222;-65
2022/09/05 09:25:16;;;;;;;;;;;;;;;19.35;46.74;101867.20;1693465;83;26134;-66
2022/09/05 09:27:57;;;;;;;;;;;;;;;19.43;46.64;101864.02;1670458;83;84241;-65
2022/09/05 09:30:31;;;;;;;;;;;;;;;19.48;46.46;101856.46;1713694;82;26545;-66
2022/09/05 09:33:00;;;;;;;;;;;;;;;19.54;46.41;101857.95;1709651;82;84060;-66
2022/09/05 09:35:32;;;;;;;;;;;;;;;19.58;46.33;101854.95;1714457;81;27479;-66
2022/09/05 09:38:31;;;;;;;;;;;;;;;19.59;46.00;101855.34;1713110;82;26114;-66
2022/09/05 09:41:12;;;;;;;;;;;;;;;19.59;45.77;101854.47;1713377;82;25778;-66
2022/09/05 09:43:48;;;;;;;;;;;;;;;19.64;45.60;101852.34;1716164;82;26685;-66
2022/09/05 09:46:42;;;;;;;;;;;;;;;19.68;45.52;101849.82;1712245;82;83963;-66
2022/09/05 09:49:20;;;;;;;;;;;;;;;19.72;45.28;101854.98;1713544;82;27453;-65
2022/09/05 09:52:10;;;;;;;;;;;;;;;19.78;45.17;101851.88;1712220;81;84125;-66
2022/09/05 09:54:39;;;;;;;;;;;;;;;19.84;45.10;101843.81;1716116;82;25821;-67
2022/09/05 09:57:20;;;;;;;;;;;;;;;19.94;44.87;101846.34;1713118;81;84534;-68
2022/09/05 10:00:11;;;;;;;;;;;;;;;20.01;44.86;101840.02;1718431;81;25766;-63
2022/09/05 10:03:18;;;;;;;;;;;;;;;20.06;44.63;101837.88;1710338;82;84471;-64
2022/09/05 10:06:08;;;;;;;;;;;;;;;20.14;44.54;101840.98;1715639;82;27155;-63
2022/09/05 10:08:50;;;;;;;;;;;;;;;20.20;44.22;101832.91;1712739;82;84560;-66
2022/09/05 10:11:20;;;;;;;;;;;;;;;20.26;43.85;101835.23;1712905;82;26257;-63
2022/09/05 10:14:06;;;;;;;;;;;;;;;20.28;43.65;101830.08;1698936;82;26043;-63
2022/09/05 10:17:09;;;;;;;;;;;;;;;20.33;43.40;101825.20;1717105;82;84389;-63
2022/09/05 10:19:51;;;;;;;;;;;;;;;20.40;43.24;101825.22;1713729;81;26636;-64
2022/09/05 10:22:53;;;;;;;;;;;;;;;20.43;42.96;101825.50;1715413;81;84450;-64
2022/09/05 10:25:45;;;;;;;;;;;;;;;20.43;42.71;101820.06;1716087;81;25695;-63
2022/09/05 10:28:27;;;;;;;;;;;;;;;20.45;42.50;101818.11;1715033;81;84497;-65
2022/09/05 10:31:11;;;;;;;;;;;;;;;20.44;42.22;101819.08;1717192;81;27402;-64
2022/09/05 10:33:44;;;;;;;;;;;;;;;20.45;42.06;101811.30;1715796;81;84164;-63
2022/09/05 10:36:16;;;;;;;;;;;;;;;20.53;41.84;101814.88;1710963;82;25934;-63
2022/09/05 10:38:45;;;;;;;;;;;;;;;20.55;41.56;101813.80;1714857;82;84634;-63
2022/09/05 10:41:13;;;;;;;;;;;;;;;20.61;41.25;101812.52;1719109;82;25810;-63
2022/09/05 10:44:01;;;;;;;;;;;;;;;20.67;41.13;101807.53;1716137;81;28009;-63
2022/09/05 10:46:50;;;;;;;;;;;;;;;20.70;40.80;101810.53;1652040;85;84165;-63
2022/09/05 10:49:19;;;;;;;;;;;;;;;20.78;40.74;101811.38;1666620;84;26707;-64
2022/09/05 10:51:55;;;;;;;;;;;;;;;20.87;40.53;101810.73;1713742;82;84454;-64
2022/09/05 10:54:30;;;;;;;;;;;;;;;20.95;40.35;101806.50;1712153;82;25928;-64
2022/09/05 10:57:10;;;;;;;;;;;;;;;21.00;40.05;101802.09;1713172;81;85099;-64
2022/09/05 11:00:07;;;;;;;;;;;;;;;21.07;39.74;101799.33;1714775;81;25849;-64
2022/09/05 11:02:38;;;;;;;;;;;;;;;21.16;39.55;101797.82;1712475;81;85119;-65
2022/09/05 11:05:25;;;;;;;;;;;;;;;21.29;39.45;101790.08;1716698;81;25801;-65
2022/09/05 11:07:54;;;;;;;;;;;;;;;21.41;39.30;101792.92;1713558;82;26118;-66
2022/09/05 11:10:30;;;;;;;;;;;;;;;21.53;39.12;101792.92;1714504;82;84711;-65
2022/09/05 11:13:11;;;;;;;;;;;;;;;21.55;38.73;101789.59;1718538;81;27106;-63
2022/09/05 11:15:46;;;;;;;;;;;;;;;21.58;38.64;101792.59;1715633;81;84120;-61
2022/09/05 11:18:18;;;;;;;;;;;;;;;21.71;38.37;101795.70;1712829;81;25815;-63
2022/09/05 11:20:47;;;;;;;;;;;;;;;21.71;38.05;101782.06;1714328;81;84516;-62
2022/09/05 11:23:25;;;;;;;;;;;;;;;21.69;37.74;101778.56;1718810;81;27549;-61
2022/09/05 11:26:01;;;;;;;;;;;;;;;21.69;37.29;101786.75;1714285;81;27210;-61
2022/09/05 11:28:30;;;;;;;;;;;;;;;21.74;37.16;101791.88;1714484;81;84116;-62
2022/09/05 11:30:56;;;;;;;;;;;;;;;21.77;36.86;101779.88;1682241;83;25850;-62
2022/09/05 11:33:39;;;;;;;;;;;;;;;21.71;36.54;101786.64;1665979;84;84717;-61
2022/09/05 11:36:11;;;;;;;;;;;;;;;21.71;36.28;101780.70;1637271;85;27423;-62
2022/09/05 11:39:03;;;;;;;;;;;;;;;21.82;36.41;101785.87;1650798;84;85221;-62
2022/09/05 11:41:39;;;;;;;;;;;;;;;21.94;36.10;101777.66;1663593;84;26553;-61
2022/09/05 11:44:20;;;;;;;;;;;;;;;22.08;36.00;101776.69;1665857;84;26459;-62
2022/09/05 11:47:04;;;;;;;;;;;;;;;22.26;35.79;101780.78;1706605;82;84467;-61
2022/09/05 11:49:34;;;;;;;;;;;;;;;22.42;35.64;101774.17;1715511;81;27459;-61
2022/09/05 11:52:28;;;;;;;;;;;;;;;22.60;35.50;101780.48;1710391;81;84172;-61
2022/09/05 11:55:01;;;;;;;;;;;;;;;22.75;35.55;101774.84;1697269;82;26140;-62
2022/09/05 11:57:40;;;;;;;;;;;;;;;22.88;35.42;101772.45;1678568;83;84097;-61
2022/09/05 12:00:15;;;;;;;;;;;;;;;23.03;35.27;101776.35;1650588;85;25917;-61
2022/09/05 12:02:48;;;;;;;;;;;;;;;23.13;35.17;101774.15;1680057;83;85064;-62
2022/09/05 12:05:51;;;;;;;;;;;;;;;23.19;34.74;101775.03;1669646;84;25836;-62
2022/09/05 12:08:19;;;;;;;;;;;;;;;23.25;34.66;101773.19;1702700;81;25816;-62
2022/09/05 12:10:50;;;;;;;;;;;;;;;23.39;34.54;101761.64;1714505;81;85061;-61
2022/09/05 12:13:46;;;;;;;;;;;;;;;23.43;33.76;101767.22;1716538;82;26083;-62
2022/09/05 12:16:37;;;;;;;;;;;;;;;23.38;33.75;101766.74;1716075;82;84238;-61
2022/09/05 12:19:10;;;;;;;;;;;;;;;23.51;33.47;101765.61;1714963;82;25767;-62
2022/09/05 12:22:07;;;;;;;;;;;;;;;23.56;33.12;101767.52;1710823;81;84578;-61
2022/09/05 12:24:51;;;;;;;;;;;;;;;23.62;32.87;101766.15;1638925;81;27793;-63
2022/09/05 12:27:18;;;;;;;;;;;;;;;23.60;32.42;101754.45;1714165;81;84159;-63
2022/09/05 12:29:48;;;;;;;;;;;;;;;23.61;32.42;101756.20;1715237;81;29543;-62
2022/09/05 12:32:24;;;;;;;;;;;;;;;23.68;32.44;101745.63;1714447;82;25905;-63
2022/09/05 12:34:56;;;;;;;;;;;;;;;23.72;31.86;101756.20;1712036;81;84821;-63
2022/09/05 12:37:28;;;;;;;;;;;;;;;23.68;31.75;101753.34;1716087;82;26302;-63
2022/09/05 12:40:08;;;;;;;;;;;;;;;23.77;31.58;101753.09;1709524;81;84912;-64
2022/09/05 12:42:47;;;;;;;;;;;;;;;23.99;31.51;101748.97;1712054;82;28071;-63
2022/09/05 12:45:22;;;;;;;;;;;;;;;24.23;31.25;101749.67;1713244;82;85533;-62
2022/09/05 12:47:55;;;;;;;;;;;;;;;24.14;30.70;101753.18;1716548;81;26026;-63
2022/09/05 12:50:24;;;;;;;;;;;;;;;24.23;30.85;101756.53;1712649;81;25772;-63
2022/09/05 12:52:54;;;;;;;;;;;;;;;24.59;30.91;101744.88;1715433;81;83899;-63
2022/09/05 12:55:26;;;;;;;;;;;;;;;24.88;30.91;101743.25;1716265;82;29572;-62
2022/09/05 12:57:56;;;;;;;;;;;;;;;25.41;30.31;101739.09;1712301;82;85272;-61
2022/09/05 13:00:22;;;;;;;;;;;;;;;25.34;29.87;101735.16;1716022;81;26637;-61
2022/09/05 13:03:00;;;;;;;;;;;;;;;25.35;29.77;101727.78;1709573;82;85349;-62
2022/09/05 13:05:33;;;;;;;;;;;;;;;25.49;29.68;101737.91;1715497;81;25877;-61
2022/09/05 13:07:57;;;;;;;;;;;;;;;25.63;29.58;101738.05;1710451;81;28658;-62
2022/09/05 13:10:33;;;;;;;;;;;;;;;26.00;29.52;101741.63;1715846;82;85326;-62
2022/09/05 13:13:02;;;;;;;;;;;;;;;26.20;29.49;101738.75;1713343;82;26415;-62
2022/09/05 13:15:36;;;;;;;;;;;;;;;26.32;29.49;101739.54;1718067;82;84595;-62
2022/09/05 13:18:07;;;;;;;;;;;;;;;26.38;29.27;101733.98;1713837;81;25759;-64
2022/09/05 13:20:44;;;;;;;;;;;;;;;26.34;28.75;101736.65;1712708;82;84775;-64
2022/09/05 13:23:16;;;;;;;;;;;;;;;26.55;28.85;101733.27;1717254;81;25762;-63
2022/09/05 13:25:43;;;;;;;;;;;;;;;26.55;28.54;101744.27;1718499;81;25861;-64
2022/09/05 13:28:12;;;;;;;;;;;;;;;26.80;28.67;101731.83;1716781;82;85025;-62
2022/09/05 13:30:41;;;;;;;;;;;;;;;27.10;28.62;101729.45;1718651;82;25753;-64
2022/09/05 13:33:34;;;;;;;;;;;;;;;27.57;28.22;101717.08;1708397;82;84101;-64
2022/09/05 13:36:06;;;;;;;;;;;;;;;27.70;28.00;101727.28;1717287;82;26204;-65
2022/09/05 13:38:48;;;;;;;;;;;;;;;27.80;27.64;101723.97;1678409;83;84545;-63